sensor_id;sensor_type;location;lat;lon;timestamp;pressure;altitude;pressure_sealevel;temperature;humidity
37852;BME280;23691;52.486;4.650;2022-08-21T00:01:57;101696.50;;;19.25;64.77
37852;BME280;23691;52.486;4.650;2022-08-21T00:04:23;101693.78;;;19.25;64.83
37852;BME280;23691;52.486;4.650;2022-08-21T00:06:50;101689.19;;;19.26;64.94
37852;BME280;23691;52.486;4.650;2022-08-21T00:09:15;101688.13;;;19.20;65.10
37852;BME280;23691;52.486;4.650;2022-08-21T00:11:41;101687.47;;;19.18;65.40
37852;BME280;23691;52.486;4.650;2022-08-21T00:14:08;101685.78;;;19.11;65.80
37852;BME280;23691;52.486;4.650;2022-08-21T00:16:34;101683.84;;;19.04;66.41
37852;BME280;23691;52.486;4.650;2022-08-21T00:18:59;101678.03;;;19.07;66.08
37852;BME280;23691;52.486;4.650;2022-08-21T00:21:25;101679.50;;;19.10;66.03
37852;BME280;23691;52.486;4.650;2022-08-21T00:23:51;101681.81;;;19.13;65.92
37852;BME280;23691;52.486;4.650;2022-08-21T00:26:17;101677.88;;;19.16;65.91
37852;BME280;23691;52.486;4.650;2022-08-21T00:28:43;101681.19;;;19.11;66.15
37852;BME280;23691;52.486;4.650;2022-08-21T00:31:11;101686.19;;;19.07;66.22
37852;BME280;23691;52.486;4.650;2022-08-21T00:33:36;101687.00;;;19.08;66.19
37852;BME280;23691;52.486;4.650;2022-08-21T00:36:02;101679.72;;;19.08;66.27
37852;BME280;23691;52.486;4.650;2022-08-21T00:38:28;101690.75;;;19.07;66.42
37852;BME280;23691;52.486;4.650;2022-08-21T00:40:56;101678.03;;;19.07;66.30
37852;BME280;23691;52.486;4.650;2022-08-21T00:43:26;101678.22;;;19.06;66.30
37852;BME280;23691;52.486;4.650;2022-08-21T00:45:53;101674.22;;;19.02;66.54
37852;BME280;23691;52.486;4.650;2022-08-21T00:48:20;101676.31;;;19.00;66.69
37852;BME280;23691;52.486;4.650;2022-08-21T00:50:52;101682.78;;;18.99;66.83
37852;BME280;23691;52.486;4.650;2022-08-21T00:53:21;101688.00;;;19.00;66.57
37852;BME280;23691;52.486;4.650;2022-08-21T00:55:47;101684.25;;;19.01;66.59
37852;BME280;23691;52.486;4.650;2022-08-21T00:58:14;101680.91;;;18.99;66.71
37852;BME280;23691;52.486;4.650;2022-08-21T01:00:42;101672.97;;;18.98;66.91
37852;BME280;23691;52.486;4.650;2022-08-21T01:03:12;101672.13;;;18.97;66.99
37852;BME280;23691;52.486;4.650;2022-08-21T01:05:38;101677.34;;;18.99;66.97
37852;BME280;23691;52.486;4.650;2022-08-21T01:08:04;101677.16;;;19.00;66.71
37852;BME280;23691;52.486;4.650;2022-08-21T01:10:31;101667.16;;;19.01;66.65
37852;BME280;23691;52.486;4.650;2022-08-21T01:12:57;101672.56;;;19.01;66.72
37852;BME280;23691;52.486;4.650;2022-08-21T01:15:32;101673.59;;;19.00;66.83
37852;BME280;23691;52.486;4.650;2022-08-21T01:17:59;101666.50;;;18.99;66.95
37852;BME280;23691;52.486;4.650;2022-08-21T01:20:27;101667.34;;;18.99;66.95
37852;BME280;23691;52.486;4.650;2022-08-21T01:22:52;101668.38;;;18.98;66.76
37852;BME280;23691;52.486;4.650;2022-08-21T01:25:18;101664.22;;;18.96;67.04
37852;BME280;23691;52.486;4.650;2022-08-21T01:27:48;101660.66;;;18.95;67.34
37852;BME280;23691;52.486;4.650;2022-08-21T01:32:40;101660.84;;;18.94;67.49
37852;BME280;23691;52.486;4.650;2022-08-21T01:35:07;101666.69;;;18.91;67.92
37852;BME280;23691;52.486;4.650;2022-08-21T01:37:32;101671.50;;;18.95;67.90
37852;BME280;23691;52.486;4.650;2022-08-21T01:39:58;101664.44;;;19.01;67.76
37852;BME280;23691;52.486;4.650;2022-08-21T01:42:24;101669.88;;;19.01;67.81
37852;BME280;23691;52.486;4.650;2022-08-21T01:44:49;101673.00;;;19.04;68.13
37852;BME280;23691;52.486;4.650;2022-08-21T01:47:15;101669.88;;;19.01;68.73
37852;BME280;23691;52.486;4.650;2022-08-21T01:49:42;101662.97;;;19.05;68.45
37852;BME280;23691;52.486;4.650;2022-08-21T01:52:07;101666.56;;;19.05;68.35
37852;BME280;23691;52.486;4.650;2022-08-21T01:54:33;101655.91;;;19.04;68.67
37852;BME280;23691;52.486;4.650;2022-08-21T01:56:59;101649.41;;;19.05;68.79
37852;BME280;23691;52.486;4.650;2022-08-21T01:59:25;101644.25;;;19.10;68.63
37852;BME280;23691;52.486;4.650;2022-08-21T02:01:51;101644.88;;;19.12;68.34
37852;BME280;23691;52.486;4.650;2022-08-21T02:04:19;101649.69;;;19.10;68.28
37852;BME280;23691;52.486;4.650;2022-08-21T02:06:45;101638.19;;;19.08;68.25
37852;BME280;23691;52.486;4.650;2022-08-21T02:09:11;101639.03;;;19.08;68.39
37852;BME280;23691;52.486;4.650;2022-08-21T02:11:37;101637.09;;;19.02;68.38
37852;BME280;23691;52.486;4.650;2022-08-21T02:14:15;101643.16;;;18.98;68.65
37852;BME280;23691;52.486;4.650;2022-08-21T02:16:43;101641.22;;;18.92;68.89
37852;BME280;23691;52.486;4.650;2022-08-21T02:19:09;101645.00;;;18.91;68.72
37852;BME280;23691;52.486;4.650;2022-08-21T02:21:35;101636.22;;;18.88;68.62
37852;BME280;23691;52.486;4.650;2022-08-21T02:24:01;101639.53;;;18.84;68.75
37852;BME280;23691;52.486;4.650;2022-08-21T02:26:26;101637.00;;;18.82;68.80
37852;BME280;23691;52.486;4.650;2022-08-21T02:28:52;101637.00;;;18.82;68.65
37852;BME280;23691;52.486;4.650;2022-08-21T02:31:17;101630.97;;;18.80;68.72
37852;BME280;23691;52.486;4.650;2022-08-21T02:33:43;101635.09;;;18.76;68.82
37852;BME280;23691;52.486;4.650;2022-08-21T02:36:09;101636.09;;;18.75;68.83
37852;BME280;23691;52.486;4.650;2022-08-21T02:38:36;101632.06;;;18.64;69.05
37852;BME280;23691;52.486;4.650;2022-08-21T02:41:07;101631.44;;;18.62;69.19
37852;BME280;23691;52.486;4.650;2022-08-21T02:43:33;101631.03;;;18.65;69.04
37852;BME280;23691;52.486;4.650;2022-08-21T02:45:59;101637.91;;;18.61;69.32
37852;BME280;23691;52.486;4.650;2022-08-21T02:48:28;101627.25;;;18.60;69.34
37852;BME280;23691;52.486;4.650;2022-08-21T02:50:57;101631.00;;;18.59;69.04
37852;BME280;23691;52.486;4.650;2022-08-21T02:53:23;101630.78;;;18.60;69.25
37852;BME280;23691;52.486;4.650;2022-08-21T02:55:50;101621.81;;;18.60;69.24
37852;BME280;23691;52.486;4.650;2022-08-21T02:58:18;101632.25;;;18.56;69.03
37852;BME280;23691;52.486;4.650;2022-08-21T03:00:45;101622.41;;;18.49;69.52
37852;BME280;23691;52.486;4.650;2022-08-21T03:03:11;101618.41;;;18.44;69.84
37852;BME280;23691;52.486;4.650;2022-08-21T03:05:38;101613.81;;;18.45;69.96
37852;BME280;23691;52.486;4.650;2022-08-21T03:08:06;101616.50;;;18.45;69.85
37852;BME280;23691;52.486;4.650;2022-08-21T03:10:35;101610.28;;;18.44;69.71
37852;BME280;23691;52.486;4.650;2022-08-21T03:13:01;101615.50;;;18.46;70.02
37852;BME280;23691;52.486;4.650;2022-08-21T03:15:28;101611.31;;;18.43;69.67
37852;BME280;23691;52.486;4.650;2022-08-21T03:17:54;101607.72;;;18.36;69.96
37852;BME280;23691;52.486;4.650;2022-08-21T03:20:23;101600.81;;;18.34;70.26
37852;BME280;23691;52.486;4.650;2022-08-21T03:22:50;101609.97;;;18.33;70.51
37852;BME280;23691;52.486;4.650;2022-08-21T03:25:16;101602.06;;;18.31;70.66
37852;BME280;23691;52.486;4.650;2022-08-21T03:27:43;101607.19;;;18.26;71.02
37852;BME280;23691;52.486;4.650;2022-08-21T03:30:09;101596.59;;;18.24;71.08
37852;BME280;23691;52.486;4.650;2022-08-21T03:32:35;101599.69;;;18.21;71.32
37852;BME280;23691;52.486;4.650;2022-08-21T03:35:02;101597.16;;;18.20;71.42
37852;BME280;23691;52.486;4.650;2022-08-21T03:37:27;101602.41;;;18.21;71.10
37852;BME280;23691;52.486;4.650;2022-08-21T03:39:53;101593.63;;;18.19;71.41
37852;BME280;23691;52.486;4.650;2022-08-21T03:42:18;101590.69;;;18.14;71.50
37852;BME280;23691;52.486;4.650;2022-08-21T03:44:44;101585.63;;;18.11;71.65
37852;BME280;23691;52.486;4.650;2022-08-21T03:47:09;101588.94;;;18.07;72.24
37852;BME280;23691;52.486;4.650;2022-08-21T03:49:35;101585.00;;;18.09;71.82
37852;BME280;23691;52.486;4.650;2022-08-21T03:52:01;101582.88;;;18.05;72.10
37852;BME280;23691;52.486;4.650;2022-08-21T03:54:27;101579.97;;;18.06;72.06
37852;BME280;23691;52.486;4.650;2022-08-21T03:56:52;101580.81;;;18.07;72.16
37852;BME280;23691;52.486;4.650;2022-08-21T03:59:18;101583.25;;;18.01;72.28
37852;BME280;23691;52.486;4.650;2022-08-21T04:01:56;101595.97;;;18.01;72.47
37852;BME280;23691;52.486;4.650;2022-08-21T04:04:23;101594.69;;;17.97;72.52
37852;BME280;23691;52.486;4.650;2022-08-21T04:06:48;101587.19;;;17.99;72.29
37852;BME280;23691;52.486;4.650;2022-08-21T04:09:16;101596.19;;;17.99;72.46
37852;BME280;23691;52.486;4.650;2022-08-21T04:11:41;101597.00;;;18.00;72.26
37852;BME280;23691;52.486;4.650;2022-08-21T04:14:07;101588.88;;;18.00;72.16
37852;BME280;23691;52.486;4.650;2022-08-21T04:16:32;101593.66;;;17.98;72.20
37852;BME280;23691;52.486;4.650;2022-08-21T04:18:57;101593.81;;;17.90;72.31
37852;BME280;23691;52.486;4.650;2022-08-21T04:21:23;101594.44;;;17.92;72.53
37852;BME280;23691;52.486;4.650;2022-08-21T04:23:49;101592.59;;;17.99;72.13
37852;BME280;23691;52.486;4.650;2022-08-21T04:26:15;101593.06;;;18.02;72.45
37852;BME280;23691;52.486;4.650;2022-08-21T04:28:40;101595.72;;;17.96;72.32
37852;BME280;23691;52.486;4.650;2022-08-21T04:31:06;101601.13;;;17.96;72.29
37852;BME280;23691;52.486;4.650;2022-08-21T04:33:31;101602.44;;;18.00;72.28
37852;BME280;23691;52.486;4.650;2022-08-21T04:35:57;101607.63;;;18.01;72.29
37852;BME280;23691;52.486;4.650;2022-08-21T04:38:22;101602.84;;;18.03;72.10
37852;BME280;23691;52.486;4.650;2022-08-21T04:40:48;101615.16;;;18.06;72.25
37852;BME280;23691;52.486;4.650;2022-08-21T04:43:14;101605.56;;;18.03;72.25
37852;BME280;23691;52.486;4.650;2022-08-21T04:45:42;101611.44;;;18.07;72.46
37852;BME280;23691;52.486;4.650;2022-08-21T04:48:10;101610.78;;;18.05;72.32
37852;BME280;23691;52.486;4.650;2022-08-21T04:50:39;101602.84;;;18.03;72.55
37852;BME280;23691;52.486;4.650;2022-08-21T04:53:09;101609.31;;;18.02;72.75
37852;BME280;23691;52.486;4.650;2022-08-21T04:55:36;101612.84;;;18.03;72.57
37852;BME280;23691;52.486;4.650;2022-08-21T04:58:06;101612.47;;;18.06;72.34
37852;BME280;23691;52.486;4.650;2022-08-21T05:00:34;101607.50;;;18.10;72.33
37852;BME280;23691;52.486;4.650;2022-08-21T05:02:59;101617.28;;;18.11;72.08
37852;BME280;23691;52.486;4.650;2022-08-21T05:05:28;101615.88;;;18.15;72.09
37852;BME280;23691;52.486;4.650;2022-08-21T05:07:54;101614.84;;;18.16;72.14
37852;BME280;23691;52.486;4.650;2022-08-21T05:10:21;101624.84;;;18.15;71.83
37852;BME280;23691;52.486;4.650;2022-08-21T05:12:48;101620.66;;;18.13;72.47
37852;BME280;23691;52.486;4.650;2022-08-21T05:15:14;101618.34;;;18.10;72.60
37852;BME280;23691;52.486;4.650;2022-08-21T05:17:41;101618.75;;;18.07;72.51
37852;BME280;23691;52.486;4.650;2022-08-21T05:20:07;101621.16;;;18.01;73.19
37852;BME280;23691;52.486;4.650;2022-08-21T05:22:33;101623.88;;;18.01;73.24
37852;BME280;23691;52.486;4.650;2022-08-21T05:25:01;101626.56;;;18.01;73.62
37852;BME280;23691;52.486;4.650;2022-08-21T05:27:26;101622.47;;;18.06;73.61
37852;BME280;23691;52.486;4.650;2022-08-21T05:29:55;101625.22;;;18.12;73.63
37852;BME280;23691;52.486;4.650;2022-08-21T05:32:20;101627.72;;;18.14;73.68
37852;BME280;23691;52.486;4.650;2022-08-21T05:34:46;101627.34;;;18.17;74.10
37852;BME280;23691;52.486;4.650;2022-08-21T05:37:12;101625.72;;;18.22;74.08
37852;BME280;23691;52.486;4.650;2022-08-21T05:39:37;101623.91;;;18.30;74.12
37852;BME280;23691;52.486;4.650;2022-08-21T05:42:06;101628.53;;;18.36;73.82
37852;BME280;23691;52.486;4.650;2022-08-21T05:44:31;101627.94;;;18.40;73.93
37852;BME280;23691;52.486;4.650;2022-08-21T05:47:08;101625.94;;;18.49;73.79
37852;BME280;23691;52.486;4.650;2022-08-21T05:49:34;101631.41;;;18.56;73.88
37852;BME280;23691;52.486;4.650;2022-08-21T05:52:01;101630.59;;;18.62;73.61
37852;BME280;23691;52.486;4.650;2022-08-21T05:54:27;101630.19;;;18.65;74.04
37852;BME280;23691;52.486;4.650;2022-08-21T05:56:53;101629.81;;;18.68;74.04
37852;BME280;23691;52.486;4.650;2022-08-21T05:59:18;101633.47;;;18.82;73.91
37852;BME280;23691;52.486;4.650;2022-08-21T06:01:44;101632.13;;;19.06;73.49
37852;BME280;23691;52.486;4.650;2022-08-21T06:04:11;101629.91;;;19.23;73.31
37852;BME280;23691;52.486;4.650;2022-08-21T06:06:36;101628.50;;;19.40;73.02
37852;BME280;23691;52.486;4.650;2022-08-21T06:09:03;101627.72;;;19.60;72.63
37852;BME280;23691;52.486;4.650;2022-08-21T06:11:29;101619.81;;;19.65;72.69
37852;BME280;23691;52.486;4.650;2022-08-21T06:13:55;101617.75;;;19.73;72.70
37852;BME280;23691;52.486;4.650;2022-08-21T06:16:20;101624.88;;;19.88;72.15
37852;BME280;23691;52.486;4.650;2022-08-21T06:18:47;101624.47;;;19.98;71.93
37852;BME280;23691;52.486;4.650;2022-08-21T06:21:12;101628.03;;;20.05;71.81
37852;BME280;23691;52.486;4.650;2022-08-21T06:23:38;101620.50;;;20.00;71.93
37852;BME280;23691;52.486;4.650;2022-08-21T06:26:06;101614.03;;;19.94;72.19
37852;BME280;23691;52.486;4.650;2022-08-21T06:28:33;101621.75;;;20.04;71.94
37852;BME280;23691;52.486;4.650;2022-08-21T06:30:58;101620.94;;;20.04;71.87
37852;BME280;23691;52.486;4.650;2022-08-21T06:33:24;101624.69;;;20.03;72.09
37852;BME280;23691;52.486;4.650;2022-08-21T06:35:50;101621.75;;;20.04;72.05
37852;BME280;23691;52.486;4.650;2022-08-21T06:38:15;101612.56;;;20.05;72.22
37852;BME280;23691;52.486;4.650;2022-08-21T06:40:41;101618.63;;;20.07;72.02
37852;BME280;23691;52.486;4.650;2022-08-21T06:43:10;101610.69;;;20.12;72.06
37852;BME280;23691;52.486;4.650;2022-08-21T06:45:36;101615.69;;;20.22;72.05
37852;BME280;23691;52.486;4.650;2022-08-21T06:48:02;101615.28;;;20.38;71.83
37852;BME280;23691;52.486;4.650;2022-08-21T06:50:28;101609.81;;;20.52;71.61
37852;BME280;23691;52.486;4.650;2022-08-21T06:53:09;101613.38;;;20.66;70.94
37852;BME280;23691;52.486;4.650;2022-08-21T06:55:35;101615.84;;;20.74;71.16
37852;BME280;23691;52.486;4.650;2022-08-21T06:58:03;101619.38;;;20.88;70.64
37852;BME280;23691;52.486;4.650;2022-08-21T07:00:29;101614.50;;;21.10;70.30
37852;BME280;23691;52.486;4.650;2022-08-21T07:02:55;101622.16;;;21.26;69.37
37852;BME280;23691;52.486;4.650;2022-08-21T07:05:20;101621.69;;;21.42;69.12
37852;BME280;23691;52.486;4.650;2022-08-21T07:07:46;101616.84;;;21.51;69.02
37852;BME280;23691;52.486;4.650;2022-08-21T07:10:14;101612.16;;;21.58;68.85
37852;BME280;23691;52.486;4.650;2022-08-21T07:12:39;101621.97;;;21.66;68.56
37852;BME280;23691;52.486;4.650;2022-08-21T07:15:05;101617.44;;;21.85;68.11
37852;BME280;23691;52.486;4.650;2022-08-21T07:17:31;101617.69;;;22.08;67.55
37852;BME280;23691;52.486;4.650;2022-08-21T07:19:56;101623.31;;;22.39;66.95
37852;BME280;23691;52.486;4.650;2022-08-21T07:22:23;101614.16;;;22.51;66.63
37852;BME280;23691;52.486;4.650;2022-08-21T07:24:48;101618.41;;;22.66;65.76
37852;BME280;23691;52.486;4.650;2022-08-21T07:27:14;101609.56;;;22.70;65.98
37852;BME280;23691;52.486;4.650;2022-08-21T07:29:40;101629.56;;;22.83;65.56
37852;BME280;23691;52.486;4.650;2022-08-21T07:32:05;101620.50;;;22.89;65.10
37852;BME280;23691;52.486;4.650;2022-08-21T07:34:31;101619.41;;;23.08;64.60
37852;BME280;23691;52.486;4.650;2022-08-21T07:36:57;101618.81;;;23.25;64.93
37852;BME280;23691;52.486;4.650;2022-08-21T07:39:23;101616.63;;;23.45;64.00
37852;BME280;23691;52.486;4.650;2022-08-21T07:41:48;101623.69;;;23.65;63.62
37852;BME280;23691;52.486;4.650;2022-08-21T07:44:13;101625.81;;;23.63;63.72
37852;BME280;23691;52.486;4.650;2022-08-21T07:46:39;101625.91;;;23.74;62.93
37852;BME280;23691;52.486;4.650;2022-08-21T07:49:04;101618.38;;;23.70;62.72
37852;BME280;23691;52.486;4.650;2022-08-21T07:51:29;101624.84;;;23.75;62.66
37852;BME280;23691;52.486;4.650;2022-08-21T07:53:57;101619.16;;;23.89;62.39
37852;BME280;23691;52.486;4.650;2022-08-21T07:56:24;101613.84;;;24.06;61.82
37852;BME280;23691;52.486;4.650;2022-08-21T07:58:52;101609.56;;;24.21;61.34
37852;BME280;23691;52.486;4.650;2022-08-21T08:01:19;101616.25;;;24.26;61.22
37852;BME280;23691;52.486;4.650;2022-08-21T08:03:45;101621.25;;;24.40;60.48
37852;BME280;23691;52.486;4.650;2022-08-21T08:06:11;101612.13;;;24.47;59.95
37852;BME280;23691;52.486;4.650;2022-08-21T08:08:40;101614.38;;;24.50;59.59
37852;BME280;23691;52.486;4.650;2022-08-21T08:11:08;101619.13;;;24.54;60.01
37852;BME280;23691;52.486;4.650;2022-08-21T08:13:47;101612.13;;;24.47;60.08
37852;BME280;23691;52.486;4.650;2022-08-21T08:16:13;101611.47;;;24.21;60.63
37852;BME280;23691;52.486;4.650;2022-08-21T08:18:39;101617.28;;;24.01;60.55
37852;BME280;23691;52.486;4.650;2022-08-21T08:21:06;101624.25;;;23.73;61.00
37852;BME280;23691;52.486;4.650;2022-08-21T08:23:32;101626.41;;;23.53;60.95
37852;BME280;23691;52.486;4.650;2022-08-21T08:25:58;101619.22;;;23.40;61.88
37852;BME280;23691;52.486;4.650;2022-08-21T08:28:24;101628.72;;;23.38;61.85
37852;BME280;23691;52.486;4.650;2022-08-21T08:30:49;101622.88;;;23.34;61.72
37852;BME280;23691;52.486;4.650;2022-08-21T08:33:15;101609.59;;;23.68;60.48
37852;BME280;23691;52.486;4.650;2022-08-21T08:35:45;101626.31;;;24.02;59.51
37852;BME280;23691;52.486;4.650;2022-08-21T08:38:12;101619.94;;;24.19;58.79
37852;BME280;23691;52.486;4.650;2022-08-21T08:43:29;101608.63;;;24.87;57.38
37852;BME280;23691;52.486;4.650;2022-08-21T08:45:57;101609.06;;;24.95;56.84
37852;BME280;23691;52.486;4.650;2022-08-21T08:51:00;101614.28;;;25.09;55.57
37852;BME280;23691;52.486;4.650;2022-08-21T08:53:32;101612.91;;;24.82;55.76
37852;BME280;23691;52.486;4.650;2022-08-21T08:56:00;101617.81;;;24.57;56.42
37852;BME280;23691;52.486;4.650;2022-08-21T08:58:34;101608.78;;;24.56;55.13
37852;BME280;23691;52.486;4.650;2022-08-21T09:01:10;101615.44;;;24.60;54.14
37852;BME280;23691;52.486;4.650;2022-08-21T09:03:38;101615.81;;;24.64;54.12
37852;BME280;23691;52.486;4.650;2022-08-21T09:09:23;101612.56;;;24.67;51.05
37852;BME280;23691;52.486;4.650;2022-08-21T09:17:29;101613.19;;;25.10;50.73
37852;BME280;23691;52.486;4.650;2022-08-21T09:25:31;101614.41;;;25.42;50.55
37852;BME280;23691;52.486;4.650;2022-08-21T09:27:57;101621.16;;;25.52;50.37
37852;BME280;23691;52.486;4.650;2022-08-21T09:30:29;101622.97;;;25.46;50.27
37852;BME280;23691;52.486;4.650;2022-08-21T09:32:55;101626.50;;;25.58;49.90
37852;BME280;23691;52.486;4.650;2022-08-21T09:35:22;101627.13;;;25.48;50.54
37852;BME280;23691;52.486;4.650;2022-08-21T09:37:58;101629.69;;;25.38;50.44
37852;BME280;23691;52.486;4.650;2022-08-21T09:40:37;101615.19;;;25.26;51.24
37852;BME280;23691;52.486;4.650;2022-08-21T09:45:35;101633.09;;;24.93;52.83
37852;BME280;23691;52.486;4.650;2022-08-21T09:48:21;101635.88;;;24.70;53.28
37852;BME280;23691;52.486;4.650;2022-08-21T09:50:47;101633.88;;;24.53;53.70
37852;BME280;23691;52.486;4.650;2022-08-21T09:53:34;101641.84;;;24.55;53.65
37852;BME280;23691;52.486;4.650;2022-08-21T09:56:04;101639.72;;;24.57;53.75
37852;BME280;23691;52.486;4.650;2022-08-21T09:58:49;101638.50;;;24.64;52.99
37852;BME280;23691;52.486;4.650;2022-08-21T10:01:22;101641.97;;;24.72;52.73
37852;BME280;23691;52.486;4.650;2022-08-21T10:03:49;101638.72;;;24.87;52.84
37852;BME280;23691;52.486;4.650;2022-08-21T10:06:25;101638.94;;;24.85;52.51
37852;BME280;23691;52.486;4.650;2022-08-21T10:08:51;101637.41;;;24.89;52.07
37852;BME280;23691;52.486;4.650;2022-08-21T10:11:28;101640.97;;;24.90;51.89
37852;BME280;23691;52.486;4.650;2022-08-21T10:15:01;101646.13;;;24.74;51.57
37852;BME280;23691;52.486;4.650;2022-08-21T10:24:52;101651.81;;;24.37;52.33
37852;BME280;23691;52.486;4.650;2022-08-21T10:30:08;101651.44;;;24.22;52.95
37852;BME280;23691;52.486;4.650;2022-08-21T10:33:01;101646.19;;;24.09;52.69
37852;BME280;23691;52.486;4.650;2022-08-21T10:35:31;101634.50;;;24.02;53.30
37852;BME280;23691;52.486;4.650;2022-08-21T10:41:12;101641.19;;;24.06;53.89
37852;BME280;23691;52.486;4.650;2022-08-21T10:54:43;101644.81;;;23.57;54.78
37852;BME280;23691;52.486;4.650;2022-08-21T11:00:19;101638.72;;;23.74;54.36
37852;BME280;23691;52.486;4.650;2022-08-21T11:03:10;101647.13;;;24.03;54.05
37852;BME280;23691;52.486;4.650;2022-08-21T11:05:48;101635.25;;;24.09;53.41
37852;BME280;23691;52.486;4.650;2022-08-21T11:08:21;101646.91;;;24.16;53.44
37852;BME280;23691;52.486;4.650;2022-08-21T11:11:08;101649.63;;;24.16;53.54
37852;BME280;23691;52.486;4.650;2022-08-21T11:13:45;101655.69;;;24.06;53.64
37852;BME280;23691;52.486;4.650;2022-08-21T11:16:19;101656.63;;;24.12;54.04
37852;BME280;23691;52.486;4.650;2022-08-21T11:18:57;101665.94;;;24.23;53.54
37852;BME280;23691;52.486;4.650;2022-08-21T11:21:35;101662.47;;;24.15;53.98
37852;BME280;23691;52.486;4.650;2022-08-21T11:27:13;101674.03;;;23.87;54.22
37852;BME280;23691;52.486;4.650;2022-08-21T11:29:48;101675.69;;;23.76;54.46
37852;BME280;23691;52.486;4.650;2022-08-21T11:43:16;101680.13;;;23.89;53.59
37852;BME280;23691;52.486;4.650;2022-08-21T11:45:53;101675.47;;;23.90;53.61
37852;BME280;23691;52.486;4.650;2022-08-21T11:48:40;101680.13;;;23.89;53.46
37852;BME280;23691;52.486;4.650;2022-08-21T11:51:39;101669.72;;;24.10;53.05
37852;BME280;23691;52.486;4.650;2022-08-21T11:56:55;101681.03;;;24.25;52.21
37852;BME280;23691;52.486;4.650;2022-08-21T11:59:32;101669.88;;;24.38;52.28
37852;BME280;23691;52.486;4.650;2022-08-21T12:02:00;101675.09;;;24.40;51.88
37852;BME280;23691;52.486;4.650;2022-08-21T12:04:31;101677.03;;;24.39;51.80
37852;BME280;23691;52.486;4.650;2022-08-21T12:07:10;101680.16;;;24.55;50.85
37852;BME280;23691;52.486;4.650;2022-08-21T12:09:38;101672.16;;;24.77;50.60
37852;BME280;23691;52.486;4.650;2022-08-21T12:15:12;101677.25;;;25.09;49.80
37852;BME280;23691;52.486;4.650;2022-08-21T12:17:40;101681.16;;;25.24;49.88
37852;BME280;23691;52.486;4.650;2022-08-21T12:20:23;101680.03;;;25.37;49.23
37852;BME280;23691;52.486;4.650;2022-08-21T12:22:55;101677.25;;;25.09;48.79
37852;BME280;23691;52.486;4.650;2022-08-21T12:25:36;101687.97;;;24.98;49.26
37852;BME280;23691;52.486;4.650;2022-08-21T12:28:07;101683.13;;;24.89;49.21
37852;BME280;23691;52.486;4.650;2022-08-21T12:30:40;101683.56;;;24.85;49.49
37852;BME280;23691;52.486;4.650;2022-08-21T12:33:20;101679.56;;;24.76;49.40
37852;BME280;23691;52.486;4.650;2022-08-21T12:35:47;101684.31;;;24.69;49.22
37852;BME280;23691;52.486;4.650;2022-08-21T12:38:27;101679.66;;;24.70;49.47
37852;BME280;23691;52.486;4.650;2022-08-21T12:40:57;101679.78;;;24.75;49.24
37852;BME280;23691;52.486;4.650;2022-08-21T12:43:31;101677.16;;;24.80;48.94
37852;BME280;23691;52.486;4.650;2022-08-21T12:45:59;101686.63;;;25.13;48.12
37852;BME280;23691;52.486;4.650;2022-08-21T12:48:38;101685.69;;;25.07;47.95
37852;BME280;23691;52.486;4.650;2022-08-21T12:51:10;101680.66;;;25.27;48.11
37852;BME280;23691;52.486;4.650;2022-08-21T12:54:02;101685.13;;;25.74;47.00
37852;BME280;23691;52.486;4.650;2022-08-21T12:56:33;101674.91;;;25.98;46.31
37852;BME280;23691;52.486;4.650;2022-08-21T12:59:10;101679.59;;;26.31;45.71
37852;BME280;23691;52.486;4.650;2022-08-21T13:01:48;101682.50;;;26.59;44.30
37852;BME280;23691;52.486;4.650;2022-08-21T13:04:20;101676.91;;;26.70;42.78
37852;BME280;23691;52.486;4.650;2022-08-21T13:06:51;101678.56;;;26.88;42.56
37852;BME280;23691;52.486;4.650;2022-08-21T13:09:20;101673.38;;;26.92;42.46
37852;BME280;23691;52.486;4.650;2022-08-21T13:11:49;101684.03;;;26.88;42.55
37852;BME280;23691;52.486;4.650;2022-08-21T13:14:31;101681.09;;;26.95;41.05
37852;BME280;23691;52.486;4.650;2022-08-21T13:16:59;101682.72;;;27.13;41.25
37852;BME280;23691;52.486;4.650;2022-08-21T13:19:25;101682.94;;;27.28;41.77
37852;BME280;23691;52.486;4.650;2022-08-21T13:21:52;101681.09;;;27.17;41.72
37852;BME280;23691;52.486;4.650;2022-08-21T13:26:49;101684.94;;;26.94;42.87
37852;BME280;23691;52.486;4.650;2022-08-21T13:29:17;101687.47;;;26.45;41.19
37852;BME280;23691;52.486;4.650;2022-08-21T13:31:55;101678.75;;;26.31;40.95
37852;BME280;23691;52.486;4.650;2022-08-21T13:34:28;101689.63;;;26.26;41.35
37852;BME280;23691;52.486;4.650;2022-08-21T13:36:57;101681.31;;;26.04;43.04
37852;BME280;23691;52.486;4.650;2022-08-21T13:39:24;101692.13;;;25.82;43.12
37852;BME280;23691;52.486;4.650;2022-08-21T13:41:54;101689.56;;;25.75;43.95
37852;BME280;23691;52.486;4.650;2022-08-21T13:44:23;101690.53;;;25.69;44.14
37852;BME280;23691;52.486;4.650;2022-08-21T13:46:52;101693.06;;;25.59;45.27
37852;BME280;23691;52.486;4.650;2022-08-21T13:49:31;101689.53;;;25.46;45.29
37852;BME280;23691;52.486;4.650;2022-08-21T13:51:57;101701.94;;;25.37;45.95
37852;BME280;23691;52.486;4.650;2022-08-21T13:56:58;101695.22;;;25.28;46.87
37852;BME280;23691;52.486;4.650;2022-08-21T13:59:35;101692.38;;;25.23;47.31
37852;BME280;23691;52.486;4.650;2022-08-21T14:02:19;101688.75;;;25.34;47.56
37852;BME280;23691;52.486;4.650;2022-08-21T14:04:55;101689.50;;;25.18;47.77
37852;BME280;23691;52.486;4.650;2022-08-21T14:07:29;101686.06;;;24.99;48.33
37852;BME280;23691;52.486;4.650;2022-08-21T14:10:01;101691.66;;;24.92;47.83
37852;BME280;23691;52.486;4.650;2022-08-21T14:12:32;101691.38;;;25.05;48.25
37852;BME280;23691;52.486;4.650;2022-08-21T14:15:03;101694.13;;;25.05;48.06
37852;BME280;23691;52.486;4.650;2022-08-21T14:17:34;101690.44;;;25.12;48.30